Latest Weather Observations for Maryborough

IDQ60801

Issued at 11:32 am EST Tuesday 26 September 2017 (issued every 30 minutes, with the page automatically refreshed every 10 minutes)

About weather observations | Map of weather stations | Latest weather observations for QLD | Other Formats
Station Details ID: 040126 Name: MARYBOROUGH Lat: -25.51 Lon: 152.72 Height: 8.98 m
Data from the previous 72 hours. | See also: Recent months at Maryborough
Date/Time
EST
Temp
°C
App
Temp
°C
Dew
Point
°C
Rel
Hum
%
Delta-T
°C
Wind Press
QNH
hPa
Press
MSL
hPa
Rain since
9am
mm
Dir  Spd
km/h
Gust
km/h
Spd
kts
Gust
kts
26/11:30am 29.0 28.1 16.9 48 7.6 N 17 30 9 16 1013.8 - 0.0
26/11:00am 28.8 27.4 14.6 42 8.6 N 15 26 8 14 1014.3 - 0.0
26/10:30am 28.3 27.7 15.6 46 7.8 NNW 13 20 7 11 1015.0 - 0.0
26/10:00am 27.5 26.2 15.8 48 7.2 NW 17 26 9 14 1015.4 - 0.0
26/09:30am 27.0 25.6 16.6 53 6.4 NNW 19 28 10 15 1015.4 - 0.0
26/09:00am 25.7 23.5 16.8 58 5.5 NNW 24 33 13 18 1015.1 1015.1 0.0
26/08:30am 24.9 23.3 17.4 63 4.7 NW 22 35 12 19 1014.9 - 0.0
26/08:00am 23.1 21.2 17.6 71 3.4 NNW 24 33 13 18 1015.1 - 0.0
26/07:30am 21.9 21.0 18.3 80 2.2 NNW 20 28 11 15 1015.0 - 0.0
26/07:09am 21.1 21.0 18.7 86 1.5 NW 17 24 9 13 1014.9 - 0.0
26/07:00am 20.6 20.4 18.4 87 1.4 NW 17 24 9 13 1014.8 - 0.0
26/06:30am 20.3 20.2 18.8 91 0.9 NW 17 28 9 15 1014.6 - 0.0
26/06:00am 19.7 19.5 18.5 93 0.7 NNW 17 24 9 13 1013.7 1013.7 0.0
26/05:44am 19.7 19.6 18.7 94 0.6 NNW 17 28 9 15 1013.6 - 0.0
26/05:30am 19.6 17.7 18.6 94 0.6 N 26 43 14 23 1012.7 - 0.0
26/05:20am 19.6 17.4 18.6 94 0.6 N 28 39 15 21 1012.6 - 0.0
26/05:03am 19.5 18.1 18.7 95 0.5 NNW 24 33 13 18 1012.9 - 0.0
26/05:00am 19.5 18.1 18.7 95 0.5 NNW 24 32 13 17 1013.0 - 0.0
26/04:30am 19.1 18.3 18.1 94 0.6 NNW 19 28 10 15 1013.3 - 0.0
26/04:00am 19.0 19.3 17.8 93 0.7 NNW 13 20 7 11 1013.1 - 0.0
26/03:30am 19.4 19.7 17.9 91 0.9 N 13 19 7 10 1013.2 - 0.0
26/03:18am 19.6 19.6 18.1 91 0.9 N 15 22 8 12 1013.2 - 0.0
26/03:00am 19.9 20.4 18.4 91 0.9 N 13 19 7 10 1013.2 1013.2 0.0
26/02:30am 20.3 21.4 18.8 91 0.9 NNW 11 15 6 8 1013.4 - 0.0
26/02:00am 20.3 20.6 18.8 91 0.9 NW 15 20 8 11 1013.7 - 0.0
26/01:30am 20.0 20.5 18.3 90 1.1 NNW 13 19 7 10 1013.4 - 0.0
26/01:15am 20.1 20.6 18.4 90 1.1 NNW 13 20 7 11 1013.5 - 0.0
26/01:00am 20.1 20.1 18.2 89 1.2 N 15 22 8 12 1013.5 - 0.0
26/12:30am 20.3 20.4 18.4 89 1.2 N 15 24 8 13 1013.8 - 0.0
26/12:00am 20.3 20.3 18.2 88 1.3 N 15 22 8 12 1014.0 1014.0 0.0
 
Date/Time
EST
Temp
°C
App
Temp
°C
Dew
Point
°C
Rel
Hum
%
Delta-T
°C
Wind Press
QNH
hPa
Press
MSL
hPa
Rain since
9am
mm
Dir  Spd
km/h
Gust
km/h
Spd
kts
Gust
kts
25/11:30pm 20.4 20.1 18.2 87 1.4 N 17 24 9 13 1014.1 - 0.0
25/11:00pm 20.5 20.5 18.1 86 1.5 N 15 24 8 13 1014.1 - 0.0
25/10:30pm 20.5 20.4 17.9 85 1.6 N 15 22 8 12 1014.1 - 0.0
25/10:00pm 20.6 20.3 18.2 86 1.5 N 17 24 9 13 1014.3 - 0.0
25/09:30pm 20.7 21.1 18.1 85 1.6 N 13 19 7 10 1014.4 - 0.0
25/09:00pm 20.9 20.8 17.9 83 1.9 N 15 22 8 12 1014.3 1014.3 0.0
25/08:30pm 21.2 20.8 18.0 82 2.0 N 17 24 9 13 1014.2 - 0.0
25/08:00pm 21.1 20.9 17.7 81 2.1 N 15 20 8 11 1014.0 - 0.0
25/07:30pm 21.4 21.3 17.8 80 2.2 N 15 22 8 12 1013.9 - 0.0
25/07:00pm 21.6 21.1 17.8 79 2.4 N 17 28 9 15 1013.6 - 0.0
25/06:30pm 21.9 21.0 17.7 77 2.6 N 19 28 10 15 1013.2 - 0.0
25/06:00pm 22.1 21.5 17.5 75 2.8 N 17 28 9 15 1013.0 1013.0 0.0
25/05:30pm 22.8 22.5 17.3 71 3.4 N 15 24 8 13 1012.9 - 0.0
25/05:00pm 23.7 22.6 17.2 67 4.0 N 19 30 10 16 1012.6 - 0.0
25/04:30pm 24.6 22.6 17.3 64 4.5 N 24 37 13 20 1012.4 - 0.0
25/04:00pm 25.9 24.6 17.3 59 5.4 N 20 33 11 18 1012.3 - 0.0
25/03:30pm 25.9 24.0 16.7 57 5.7 N 22 37 12 20 1012.3 - 0.0
25/03:00pm 26.9 25.3 17.4 56 6.0 N 22 35 12 19 1012.5 1012.5 0.0
25/02:30pm 27.4 25.7 17.3 54 6.3 N 22 37 12 20 1012.6 - 0.0
25/02:00pm 27.1 25.6 16.7 53 6.5 N 20 35 11 19 1012.9 - 0.0
25/01:30pm 27.6 25.6 17.5 54 6.4 N 24 37 13 20 1013.2 - 0.0
25/01:00pm 27.9 25.8 17.1 51 6.8 N 24 37 13 20 1013.4 - 0.0
25/12:30pm 28.5 27.1 17.1 50 7.2 N 20 32 11 17 1013.8 - 0.0
25/12:00pm 28.4 27.0 17.0 50 7.1 N 20 32 11 17 1014.3 1014.3 0.0
25/11:30am 28.5 26.8 17.1 50 7.2 N 22 35 12 19 1014.8 - 0.0
25/11:00am 27.8 25.9 16.7 50 6.9 N 22 35 12 19 1015.2 - 0.0
25/10:30am 27.3 24.1 16.3 51 6.8 NNW 28 41 15 22 1015.7 - 0.0
25/10:00am 27.2 22.8 15.2 47 7.3 NNW 32 44 17 24 1016.2 - 0.0
25/09:30am 26.2 23.2 15.9 53 6.3 N 26 39 14 21 1016.4 - 0.0
25/09:00am 25.9 23.7 17.0 58 5.5 NNW 24 35 13 19 1016.4 1016.4 0.0
25/08:30am 24.4 21.9 17.1 63 4.5 NNW 26 39 14 21 1016.5 - 0.0
25/08:00am 23.8 21.0 18.2 71 3.5 NNW 30 43 16 23 1016.4 - 0.0
25/07:50am 23.0 21.0 18.3 75 2.9 NNW 26 37 14 20 1016.3 - 0.0
25/07:30am 22.4 21.1 19.0 81 2.2 NNW 24 37 13 20 1016.2 - 0.0
25/07:12am 21.8 20.7 19.4 86 1.5 NNW 24 33 13 18 1016.1 - 0.0
25/07:00am 21.3 20.6 19.4 89 1.2 NNW 22 32 12 17 1016.1 - 0.0
25/06:30am 20.3 20.0 19.1 93 0.8 NNW 19 24 10 13 1015.7 - 0.0
25/06:00am 19.3 19.3 18.1 93 0.7 NNW 15 19 8 10 1015.4 1015.4 0.0
25/05:30am 19.0 19.6 17.8 93 0.7 N 11 17 6 9 1015.0 - 0.0
25/05:00am 19.1 19.7 17.6 91 0.9 NNW 11 17 6 9 1014.6 - 0.0
25/04:30am 19.6 20.0 18.1 91 0.9 N 13 20 7 11 1014.3 - 0.0
25/04:00am 19.9 20.0 18.4 91 0.9 NNW 15 20 8 11 1013.9 - 0.0
25/03:49am 19.8 19.9 18.3 91 0.9 NNW 15 22 8 12 1014.0 - 0.0
25/03:30am 20.0 19.8 18.5 91 0.9 NNW 17 22 9 12 1013.8 - 0.0
25/03:00am 20.1 20.3 18.6 91 0.9 N 15 22 8 12 1013.6 1013.6 0.0
25/02:30am 20.2 20.5 18.7 91 0.9 N 15 20 8 11 1013.7 - 0.0
25/02:08am 19.9 19.9 18.2 90 1.1 NNW 15 19 8 10 1014.0 - 0.0
25/02:00am 20.0 20.1 18.3 90 1.1 N 15 20 8 11 1014.1 - 0.0
25/01:30am 20.0 20.5 18.3 90 1.1 N 13 19 7 10 1014.3 - 0.0
25/01:00am 20.1 20.5 18.2 89 1.2 N 13 17 7 9 1014.7 - 0.0
25/12:30am 20.2 20.6 18.1 88 1.3 NNW 13 19 7 10 1014.7 - 0.0
25/12:00am 20.5 20.2 18.3 87 1.4 NNW 17 28 9 15 1014.8 1014.8 0.0
 
Date/Time
EST
Temp
°C
App
Temp
°C
Dew
Point
°C
Rel
Hum
%
Delta-T
°C
Wind Press
QNH
hPa
Press
MSL
hPa
Rain since
9am
mm
Dir  Spd
km/h
Gust
km/h
Spd
kts
Gust
kts
24/11:30pm 20.7 20.0 18.3 86 1.5 NNW 19 28 10 15 1014.8 - 0.0
24/11:00pm 20.8 19.9 18.2 85 1.6 NNW 20 28 11 15 1014.9 - 0.0
24/10:30pm 20.9 20.0 18.1 84 1.7 NNW 20 28 11 15 1015.0 - 0.0
24/10:00pm 21.0 20.0 18.0 83 1.9 NNW 20 28 11 15 1014.9 - 0.0
24/09:30pm 21.3 20.4 18.1 82 2.0 N 20 33 11 18 1014.9 - 0.0
24/09:00pm 21.4 20.0 18.0 81 2.1 N 22 39 12 21 1014.8 1014.8 0.0
24/08:30pm 21.6 20.7 18.2 81 2.1 N 20 32 11 17 1014.5 - 0.0
24/08:00pm 21.5 20.5 17.9 80 2.2 N 20 30 11 16 1014.2 - 0.0
24/07:30pm 21.6 20.5 17.8 79 2.4 N 20 30 11 16 1013.9 - 0.0
24/07:00pm 21.8 20.0 17.8 78 2.5 N 24 35 13 19 1013.5 - 0.0
24/06:30pm 21.9 20.0 17.7 77 2.6 N 24 39 13 21 1013.2 - 0.0
24/06:00pm 22.2 20.4 17.8 76 2.7 N 24 35 13 19 1013.0 1013.0 0.0
24/05:30pm 22.7 21.1 17.4 72 3.3 N 22 35 12 19 1012.8 - 0.0
24/05:00pm 23.4 21.4 17.4 69 3.7 N 24 35 13 19 1012.5 - 0.0
24/04:30pm 24.2 22.2 17.4 65 4.2 N 24 37 13 20 1012.3 - 0.0
24/04:00pm 24.8 22.2 16.8 61 4.9 N 26 43 14 23 1012.2 - 0.0
24/03:30pm 25.8 23.5 16.6 56 5.7 N 24 41 13 22 1012.1 - 0.0
24/03:00pm 27.3 25.2 17.2 54 6.3 N 24 39 13 21 1012.1 1012.1 0.0
24/02:30pm 26.3 23.6 16.5 54 6.0 N 26 43 14 23 1012.3 - 0.0
24/02:00pm 27.1 24.4 16.7 53 6.5 N 26 43 14 23 1012.5 - 0.0
24/01:30pm 26.8 24.3 17.0 55 6.1 N 26 39 14 21 1012.9 - 0.0
24/01:00pm 27.9 25.8 17.1 51 6.8 N 24 39 13 21 1013.4 - 0.0
24/12:30pm 28.3 26.2 17.2 51 7.0 N 24 37 13 20 1013.8 - 0.0
24/12:00pm 28.0 25.9 17.2 52 6.8 N 24 35 13 19 1014.2 1014.2 0.0
24/11:30am 28.1 26.2 16.7 50 7.1 N 22 35 12 19 1014.7 - 0.0
24/11:17am 28.5 25.6 17.1 50 7.2 N 28 46 15 25 1014.8 - 0.0
24/11:00am 27.8 25.5 16.7 50 6.9 N 24 33 13 18 1015.0 - 0.0
24/10:30am 27.3 25.1 16.9 53 6.5 N 24 37 13 20 1015.4 - 0.0
24/10:00am 27.5 25.3 16.8 52 6.7 N 24 32 13 17 1015.8 - 0.0
24/09:30am 26.8 24.9 17.6 57 5.8 NNW 24 33 13 18 1016.2 - 0.0
24/09:00am 25.7 22.8 17.1 59 5.3 NNW 28 39 15 21 1016.4 1016.4 0.0
24/08:30am 23.8 20.2 17.1 66 4.1 NNW 32 39 17 21 1016.5 - 0.0
24/08:00am 23.2 21.1 18.1 73 3.2 NNW 26 39 14 21 1016.6 - 0.0
24/07:30am 22.0 20.7 18.2 79 2.4 NNW 22 30 12 16 1016.4 - 0.0
24/07:00am 20.8 20.6 18.6 87 1.4 N 17 24 9 13 1016.2 - 0.0
24/06:30am 20.1 20.2 18.4 90 1.1 N 15 22 8 12 1016.0 - 0.0
24/06:12am 19.9 20.1 18.6 92 0.8 N 15 22 8 12 1015.8 - 0.0
24/06:00am 19.7 19.5 18.5 93 0.7 NNW 17 28 9 15 1015.7 1015.7 0.0
24/05:41am 19.3 19.3 18.1 93 0.7 N 15 19 8 10 1015.5 - 0.0
24/05:30am 19.1 19.0 17.9 93 0.7 N 15 22 8 12 1015.3 - 0.0
24/05:00am 19.0 18.9 17.8 93 0.7 NNW 15 19 8 10 1015.2 - 0.0
24/04:30am 19.1 19.4 17.9 93 0.7 N 13 19 7 10 1014.9 - 0.0
24/04:00am 19.2 19.9 17.9 92 0.8 N 11 15 6 8 1014.8 - 0.0
24/03:30am 19.3 19.6 17.8 91 0.9 N 13 19 7 10 1014.5 - 0.0
24/03:00am 19.3 19.9 17.8 91 0.9 N 11 15 6 8 1014.6 1014.6 0.0
24/02:30am 19.7 19.7 18.0 90 1.0 N 15 20 8 11 1014.8 - 0.0
24/02:00am 19.9 19.9 18.2 90 1.1 N 15 22 8 12 1015.3 - 0.0
24/01:39am 20.0 19.7 18.3 90 1.1 N 17 22 9 12 1015.5 - 0.0
24/01:30am 20.0 20.2 18.5 91 0.9 N 15 20 8 11 1015.6 - 0.0
24/01:03am 19.9 20.4 18.4 91 0.9 N 13 17 7 9 1015.9 - 0.0
24/01:00am 19.8 20.3 18.3 91 0.9 N 13 20 7 11 1015.9 - 0.0
24/12:30am 19.4 19.6 17.7 90 1.0 NNW 13 19 7 10 1016.2 - 0.0
24/12:00am 19.4 19.9 17.4 88 1.2 NNW 11 15 6 8 1016.3 1016.3 0.0
 
Date/Time
EST
Temp
°C
App
Temp
°C
Dew
Point
°C
Rel
Hum
%
Delta-T
°C
Wind Press
QNH
hPa
Press
MSL
hPa
Rain since
9am
mm
Dir  Spd
km/h
Gust
km/h
Spd
kts
Gust
kts
23/11:30pm 20.1 20.4 17.9 87 1.4 N 13 17 7 9 1016.3 - 0.0
23/11:00pm 20.4 20.7 18.0 86 1.5 N 13 19 7 10 1016.5 - 0.0
23/10:30pm 20.4 20.7 17.8 85 1.6 N 13 19 7 10 1016.7 - 0.0
23/10:00pm 20.5 20.7 17.7 84 1.7 N 13 22 7 12 1016.8 - 0.0
23/09:30pm 20.8 21.1 17.8 83 1.9 N 13 20 7 11 1016.8 - 0.0
23/09:00pm 20.9 21.1 17.7 82 2.0 N 13 20 7 11 1016.8 1016.8 0.0
23/08:30pm 21.1 21.0 17.9 82 2.0 N 15 24 8 13 1016.6 - 0.0
23/08:00pm 21.0 21.1 17.4 80 2.2 N 13 19 7 10 1016.4 - 0.0
23/07:30pm 21.2 20.8 17.2 78 2.4 N 15 20 8 11 1015.9 - 0.0
23/07:00pm 21.3 20.4 16.9 76 2.7 N 17 30 9 16 1015.4 - 0.0
23/06:30pm 21.7 20.6 16.4 72 3.2 N 17 28 9 15 1015.1 - 0.0
23/06:00pm 22.0 20.6 15.6 67 3.8 N 17 26 9 14 1014.9 1014.9 0.0
23/05:30pm 23.0 21.2 15.6 63 4.4 N 19 30 10 16 1014.6 - 0.0
23/05:00pm 24.0 21.5 15.2 58 5.3 N 22 30 12 16 1014.4 - 0.0
23/04:30pm 24.9 22.7 15.0 54 5.9 N 20 32 11 17 1014.2 - 0.0
23/04:00pm 25.8 22.5 14.0 48 7.0 N 24 46 13 25 1014.0 - 0.0
23/03:30pm 26.4 23.6 14.2 47 7.3 N 22 33 12 18 1014.0 - 0.0
23/03:00pm 26.9 23.8 14.6 46 7.4 N 24 33 13 18 1014.2 1014.2 0.0
23/02:30pm 27.4 25.1 15.7 48 7.2 N 22 35 12 19 1014.3 - 0.0
23/02:00pm 27.6 24.0 15.3 47 7.5 N 28 43 15 23 1014.6 - 0.0
23/01:30pm 29.4 26.1 15.1 41 8.7 N 26 41 14 22 1014.8 - 0.0
23/01:00pm 28.9 25.9 14.7 42 8.6 N 24 35 13 19 1015.3 - 0.0
23/12:30pm 28.9 26.9 15.4 44 8.3 N 20 30 11 16 1015.6 - 0.0
23/12:00pm 27.9 25.3 15.9 48 7.4 N 24 33 13 18 1015.9 1015.9 0.0

Other Formats:

Comma delimited format used in spreadsheet applications
http://www.bom.gov.au/fwo/IDQ60801/IDQ60801.94567.axf

JavaScript Object Notation format (JSON) in row-major order
http://www.bom.gov.au/fwo/IDQ60801/IDQ60801.94567.json